Voorhies, Louisiana
Current Conditions -  °F | °C
As of 1:53 AM on Thursday 27 Nov 2014 (Local Time) from KESF Reporting Station
Clear Clear  
Wind Chill:   Ceiling: Unl
Heat Index:   Visibility: 10mi
Dew Point:   Wind: 3mph
Humidity: 82%   Direction: 330°NNW
Pressure: 30.33"   Gusts: NA
Location:  31.0386°N, 91.9871°W
Report Text: KESF 270753Z AUTO 33003KT 10SM CLR 06/03 A3033 RMK AO2 SLP268 T00610033
Loading
Personal Weather Stations






























Interactive Weather Map New forecast layout! Learn more

10-Day Weather Forecast

Advertisements
Track Severe Weather on mobile